sensor_id;sensor_type;location;lat;lon;timestamp;temperature;humidity
48551;DHT22;34397;51.176;6.738;2024-02-23T00:02:21;5.50;79.30
48551;DHT22;34397;51.176;6.738;2024-02-23T00:04:54;5.40;79.30
48551;DHT22;34397;51.176;6.738;2024-02-23T00:07:26;5.30;80.70
48551;DHT22;34397;51.176;6.738;2024-02-23T00:09:58;5.20;80.40
48551;DHT22;34397;51.176;6.738;2024-02-23T00:12:30;5.10;80.10
48551;DHT22;34397;51.176;6.738;2024-02-23T00:15:02;5.00;80.50
48551;DHT22;34397;51.176;6.738;2024-02-23T00:17:35;4.90;80.60
48551;DHT22;34397;51.176;6.738;2024-02-23T00:20:10;4.90;80.80
48551;DHT22;34397;51.176;6.738;2024-02-23T00:22:43;4.90;80.50
48551;DHT22;34397;51.176;6.738;2024-02-23T00:25:14;4.90;80.60
48551;DHT22;34397;51.176;6.738;2024-02-23T00:27:46;4.90;79.50
48551;DHT22;34397;51.176;6.738;2024-02-23T00:30:18;5.00;80.10
48551;DHT22;34397;51.176;6.738;2024-02-23T00:32:50;5.00;79.70
48551;DHT22;34397;51.176;6.738;2024-02-23T00:35:23;5.00;80.00
48551;DHT22;34397;51.176;6.738;2024-02-23T00:37:55;5.10;80.40
48551;DHT22;34397;51.176;6.738;2024-02-23T00:40:27;5.00;80.20
48551;DHT22;34397;51.176;6.738;2024-02-23T00:42:59;5.10;80.60
48551;DHT22;34397;51.176;6.738;2024-02-23T00:45:31;5.10;80.90
48551;DHT22;34397;51.176;6.738;2024-02-23T00:48:03;5.10;81.00
48551;DHT22;34397;51.176;6.738;2024-02-23T00:50:38;5.10;81.70
48551;DHT22;34397;51.176;6.738;2024-02-23T00:53:10;5.10;80.50
48551;DHT22;34397;51.176;6.738;2024-02-23T00:55:42;5.20;80.90
48551;DHT22;34397;51.176;6.738;2024-02-23T00:58:14;5.20;81.00
48551;DHT22;34397;51.176;6.738;2024-02-23T01:00:46;5.20;80.80
48551;DHT22;34397;51.176;6.738;2024-02-23T01:03:18;5.20;80.20
48551;DHT22;34397;51.176;6.738;2024-02-23T01:05:52;5.20;80.70
48551;DHT22;34397;51.176;6.738;2024-02-23T01:08:23;5.20;80.70
48551;DHT22;34397;51.176;6.738;2024-02-23T01:10:55;5.20;80.50
48551;DHT22;34397;51.176;6.738;2024-02-23T01:13:27;5.20;80.40
48551;DHT22;34397;51.176;6.738;2024-02-23T01:15:59;5.10;80.40
48551;DHT22;34397;51.176;6.738;2024-02-23T01:18:31;5.10;80.00
48551;DHT22;34397;51.176;6.738;2024-02-23T01:21:04;5.10;80.50
48551;DHT22;34397;51.176;6.738;2024-02-23T01:23:36;5.10;80.70
48551;DHT22;34397;51.176;6.738;2024-02-23T01:26:08;5.10;80.60
48551;DHT22;34397;51.176;6.738;2024-02-23T01:28:40;5.10;80.20
48551;DHT22;34397;51.176;6.738;2024-02-23T01:31:12;5.20;80.20
48551;DHT22;34397;51.176;6.738;2024-02-23T01:33:43;5.10;79.90
48551;DHT22;34397;51.176;6.738;2024-02-23T01:36:17;5.10;80.40
48551;DHT22;34397;51.176;6.738;2024-02-23T01:38:49;5.20;80.80
48551;DHT22;34397;51.176;6.738;2024-02-23T01:41:20;5.20;80.00
48551;DHT22;34397;51.176;6.738;2024-02-23T01:43:53;5.10;79.50
48551;DHT22;34397;51.176;6.738;2024-02-23T01:46:25;5.10;80.30
48551;DHT22;34397;51.176;6.738;2024-02-23T01:48:57;5.10;79.90
48551;DHT22;34397;51.176;6.738;2024-02-23T01:51:31;5.10;80.40
48551;DHT22;34397;51.176;6.738;2024-02-23T01:54:04;5.10;80.20
48551;DHT22;34397;51.176;6.738;2024-02-23T01:56:37;5.10;80.10
48551;DHT22;34397;51.176;6.738;2024-02-23T01:59:10;5.10;79.50
48551;DHT22;34397;51.176;6.738;2024-02-23T02:01:44;5.10;79.50
48551;DHT22;34397;51.176;6.738;2024-02-23T02:04:15;5.10;79.40
48551;DHT22;34397;51.176;6.738;2024-02-23T02:06:49;5.00;79.30
48551;DHT22;34397;51.176;6.738;2024-02-23T02:09:21;5.00;78.20
48551;DHT22;34397;51.176;6.738;2024-02-23T02:11:53;5.00;79.40
48551;DHT22;34397;51.176;6.738;2024-02-23T02:14:25;5.00;79.30
48551;DHT22;34397;51.176;6.738;2024-02-23T02:17:00;4.90;79.60
48551;DHT22;34397;51.176;6.738;2024-02-23T02:19:32;5.00;79.30
48551;DHT22;34397;51.176;6.738;2024-02-23T02:22:05;4.90;78.60
48551;DHT22;34397;51.176;6.738;2024-02-23T02:24:37;4.90;79.40
48551;DHT22;34397;51.176;6.738;2024-02-23T02:27:11;4.90;79.30
48551;DHT22;34397;51.176;6.738;2024-02-23T02:29:43;4.80;79.50
48551;DHT22;34397;51.176;6.738;2024-02-23T02:32:15;4.80;80.00
48551;DHT22;34397;51.176;6.738;2024-02-23T02:34:47;4.80;79.30
48551;DHT22;34397;51.176;6.738;2024-02-23T02:37:20;4.80;79.30
48551;DHT22;34397;51.176;6.738;2024-02-23T02:39:52;4.80;79.00
48551;DHT22;34397;51.176;6.738;2024-02-23T02:42:24;4.80;79.60
48551;DHT22;34397;51.176;6.738;2024-02-23T02:44:56;4.80;78.70
48551;DHT22;34397;51.176;6.738;2024-02-23T02:47:28;4.80;78.60
48551;DHT22;34397;51.176;6.738;2024-02-23T02:50:00;4.80;79.80
48551;DHT22;34397;51.176;6.738;2024-02-23T02:52:33;4.80;79.10
48551;DHT22;34397;51.176;6.738;2024-02-23T02:55:05;4.80;79.60
48551;DHT22;34397;51.176;6.738;2024-02-23T02:57:38;4.80;79.10
48551;DHT22;34397;51.176;6.738;2024-02-23T03:00:11;4.80;78.60
48551;DHT22;34397;51.176;6.738;2024-02-23T03:02:43;4.80;78.50
48551;DHT22;34397;51.176;6.738;2024-02-23T03:05:15;4.80;79.00
48551;DHT22;34397;51.176;6.738;2024-02-23T03:07:48;4.80;78.60
48551;DHT22;34397;51.176;6.738;2024-02-23T03:10:20;4.80;78.60
48551;DHT22;34397;51.176;6.738;2024-02-23T03:12:52;4.80;78.30
48551;DHT22;34397;51.176;6.738;2024-02-23T03:15:24;4.80;78.30
48551;DHT22;34397;51.176;6.738;2024-02-23T03:17:56;4.80;79.70
48551;DHT22;34397;51.176;6.738;2024-02-23T03:20:28;4.80;78.90
48551;DHT22;34397;51.176;6.738;2024-02-23T03:23:01;4.80;79.00
48551;DHT22;34397;51.176;6.738;2024-02-23T03:25:34;4.80;78.80
48551;DHT22;34397;51.176;6.738;2024-02-23T03:28:05;4.80;78.10
48551;DHT22;34397;51.176;6.738;2024-02-23T03:30:37;4.80;79.60
48551;DHT22;34397;51.176;6.738;2024-02-23T03:33:09;4.80;79.20
48551;DHT22;34397;51.176;6.738;2024-02-23T03:35:41;4.80;78.60
48551;DHT22;34397;51.176;6.738;2024-02-23T03:38:14;4.80;78.40
48551;DHT22;34397;51.176;6.738;2024-02-23T03:40:46;4.80;78.10
48551;DHT22;34397;51.176;6.738;2024-02-23T03:43:18;4.80;78.10
48551;DHT22;34397;51.176;6.738;2024-02-23T03:45:49;4.80;78.30
48551;DHT22;34397;51.176;6.738;2024-02-23T03:48:21;4.80;78.30
48551;DHT22;34397;51.176;6.738;2024-02-23T03:50:53;4.70;77.20
48551;DHT22;34397;51.176;6.738;2024-02-23T03:53:27;4.80;77.90
48551;DHT22;34397;51.176;6.738;2024-02-23T03:55:58;4.80;77.70
48551;DHT22;34397;51.176;6.738;2024-02-23T03:58:30;4.70;77.50
48551;DHT22;34397;51.176;6.738;2024-02-23T04:01:02;4.70;77.90
48551;DHT22;34397;51.176;6.738;2024-02-23T04:03:34;4.70;77.60
48551;DHT22;34397;51.176;6.738;2024-02-23T04:06:06;4.70;77.50
48551;DHT22;34397;51.176;6.738;2024-02-23T04:08:40;4.80;78.60
48551;DHT22;34397;51.176;6.738;2024-02-23T04:11:13;4.80;78.10
48551;DHT22;34397;51.176;6.738;2024-02-23T04:13:44;4.80;77.30
48551;DHT22;34397;51.176;6.738;2024-02-23T04:16:16;4.80;77.50
48551;DHT22;34397;51.176;6.738;2024-02-23T04:18:48;4.70;77.00
48551;DHT22;34397;51.176;6.738;2024-02-23T04:21:20;4.80;77.10
48551;DHT22;34397;51.176;6.738;2024-02-23T04:23:53;4.80;78.10
48551;DHT22;34397;51.176;6.738;2024-02-23T04:26:25;4.80;77.40
48551;DHT22;34397;51.176;6.738;2024-02-23T04:28:57;4.80;77.70
48551;DHT22;34397;51.176;6.738;2024-02-23T04:31:29;4.80;77.70
48551;DHT22;34397;51.176;6.738;2024-02-23T04:34:01;4.80;77.90
48551;DHT22;34397;51.176;6.738;2024-02-23T04:36:32;4.80;78.10
48551;DHT22;34397;51.176;6.738;2024-02-23T04:39:06;4.90;78.10
48551;DHT22;34397;51.176;6.738;2024-02-23T04:41:37;4.90;78.20
48551;DHT22;34397;51.176;6.738;2024-02-23T04:44:09;4.90;78.10
48551;DHT22;34397;51.176;6.738;2024-02-23T04:46:41;4.90;78.30
48551;DHT22;34397;51.176;6.738;2024-02-23T04:49:13;4.90;78.30
48551;DHT22;34397;51.176;6.738;2024-02-23T04:51:45;5.00;78.40
48551;DHT22;34397;51.176;6.738;2024-02-23T04:54:18;5.10;78.00
48551;DHT22;34397;51.176;6.738;2024-02-23T04:56:50;5.10;77.10
48551;DHT22;34397;51.176;6.738;2024-02-23T04:59:22;5.10;77.80
48551;DHT22;34397;51.176;6.738;2024-02-23T05:01:53;5.20;77.10
48551;DHT22;34397;51.176;6.738;2024-02-23T05:04:25;5.20;77.00
48551;DHT22;34397;51.176;6.738;2024-02-23T05:06:58;5.20;77.10
48551;DHT22;34397;51.176;6.738;2024-02-23T05:09:31;5.30;76.90
48551;DHT22;34397;51.176;6.738;2024-02-23T05:12:06;5.30;76.40
48551;DHT22;34397;51.176;6.738;2024-02-23T05:14:38;5.30;76.40
48551;DHT22;34397;51.176;6.738;2024-02-23T05:17:10;5.30;76.10
48551;DHT22;34397;51.176;6.738;2024-02-23T05:19:42;5.30;76.20
48551;DHT22;34397;51.176;6.738;2024-02-23T05:22:14;5.40;76.10
48551;DHT22;34397;51.176;6.738;2024-02-23T05:24:48;5.40;75.90
48551;DHT22;34397;51.176;6.738;2024-02-23T05:27:20;5.40;75.70
48551;DHT22;34397;51.176;6.738;2024-02-23T05:29:51;5.40;75.50
48551;DHT22;34397;51.176;6.738;2024-02-23T05:32:23;5.40;75.60
48551;DHT22;34397;51.176;6.738;2024-02-23T05:34:58;5.50;76.20
48551;DHT22;34397;51.176;6.738;2024-02-23T05:37:30;5.50;75.90
48551;DHT22;34397;51.176;6.738;2024-02-23T05:40:04;5.50;75.70
48551;DHT22;34397;51.176;6.738;2024-02-23T05:42:40;5.50;75.70
48551;DHT22;34397;51.176;6.738;2024-02-23T05:45:12;5.60;75.40
48551;DHT22;34397;51.176;6.738;2024-02-23T05:47:44;5.60;75.90
48551;DHT22;34397;51.176;6.738;2024-02-23T05:50:16;5.70;76.40
48551;DHT22;34397;51.176;6.738;2024-02-23T05:52:49;5.70;75.90
48551;DHT22;34397;51.176;6.738;2024-02-23T05:55:22;5.70;76.70
48551;DHT22;34397;51.176;6.738;2024-02-23T05:57:55;5.80;75.70
48551;DHT22;34397;51.176;6.738;2024-02-23T06:00:27;5.80;74.80
48551;DHT22;34397;51.176;6.738;2024-02-23T06:03:00;5.80;75.10
48551;DHT22;34397;51.176;6.738;2024-02-23T06:05:32;5.80;75.60
48551;DHT22;34397;51.176;6.738;2024-02-23T06:08:05;5.80;74.60
48551;DHT22;34397;51.176;6.738;2024-02-23T06:10:39;5.80;75.10
48551;DHT22;34397;51.176;6.738;2024-02-23T06:13:13;5.90;75.70
48551;DHT22;34397;51.176;6.738;2024-02-23T06:15:45;5.90;76.60
48551;DHT22;34397;51.176;6.738;2024-02-23T06:18:17;5.90;76.60
48551;DHT22;34397;51.176;6.738;2024-02-23T06:20:49;6.00;76.40
48551;DHT22;34397;51.176;6.738;2024-02-23T06:23:21;6.00;75.90
48551;DHT22;34397;51.176;6.738;2024-02-23T06:25:55;6.00;76.20
48551;DHT22;34397;51.176;6.738;2024-02-23T06:28:29;6.00;75.10
48551;DHT22;34397;51.176;6.738;2024-02-23T06:31:01;6.00;75.30
48551;DHT22;34397;51.176;6.738;2024-02-23T06:33:34;6.10;76.40
48551;DHT22;34397;51.176;6.738;2024-02-23T06:36:06;6.10;75.60
48551;DHT22;34397;51.176;6.738;2024-02-23T06:38:39;6.10;75.80
48551;DHT22;34397;51.176;6.738;2024-02-23T06:41:12;6.10;75.70
48551;DHT22;34397;51.176;6.738;2024-02-23T06:43:44;6.10;75.90
48551;DHT22;34397;51.176;6.738;2024-02-23T06:46:18;6.10;76.40
48551;DHT22;34397;51.176;6.738;2024-02-23T06:48:51;6.10;76.60
48551;DHT22;34397;51.176;6.738;2024-02-23T06:51:23;6.20;77.00
48551;DHT22;34397;51.176;6.738;2024-02-23T06:53:55;6.10;76.40
48551;DHT22;34397;51.176;6.738;2024-02-23T06:56:28;6.10;76.40
48551;DHT22;34397;51.176;6.738;2024-02-23T06:59:00;6.10;74.40
48551;DHT22;34397;51.176;6.738;2024-02-23T07:01:32;6.10;74.40
48551;DHT22;34397;51.176;6.738;2024-02-23T07:04:06;6.00;74.80
48551;DHT22;34397;51.176;6.738;2024-02-23T07:06:38;6.00;74.70
48551;DHT22;34397;51.176;6.738;2024-02-23T07:09:09;5.90;75.00
48551;DHT22;34397;51.176;6.738;2024-02-23T07:11:43;5.90;74.30
48551;DHT22;34397;51.176;6.738;2024-02-23T07:14:16;5.90;74.30
48551;DHT22;34397;51.176;6.738;2024-02-23T07:16:48;5.80;74.20
48551;DHT22;34397;51.176;6.738;2024-02-23T07:19:20;5.80;74.40
48551;DHT22;34397;51.176;6.738;2024-02-23T07:21:52;5.90;75.00
48551;DHT22;34397;51.176;6.738;2024-02-23T07:24:24;5.80;74.70
48551;DHT22;34397;51.176;6.738;2024-02-23T07:26:57;5.80;73.50
48551;DHT22;34397;51.176;6.738;2024-02-23T07:29:29;5.70;74.20
48551;DHT22;34397;51.176;6.738;2024-02-23T07:32:02;5.70;74.70
48551;DHT22;34397;51.176;6.738;2024-02-23T07:34:34;5.70;75.20
48551;DHT22;34397;51.176;6.738;2024-02-23T07:37:06;5.70;74.30
48551;DHT22;34397;51.176;6.738;2024-02-23T07:39:38;5.70;75.00
48551;DHT22;34397;51.176;6.738;2024-02-23T07:42:11;5.70;75.00
48551;DHT22;34397;51.176;6.738;2024-02-23T07:44:45;5.70;74.50
48551;DHT22;34397;51.176;6.738;2024-02-23T07:47:17;5.70;74.60
48551;DHT22;34397;51.176;6.738;2024-02-23T07:49:48;5.80;74.90
48551;DHT22;34397;51.176;6.738;2024-02-23T07:52:21;5.80;74.80
48551;DHT22;34397;51.176;6.738;2024-02-23T07:54:54;5.80;74.50
48551;DHT22;34397;51.176;6.738;2024-02-23T07:57:27;5.80;74.30
48551;DHT22;34397;51.176;6.738;2024-02-23T08:00:00;5.80;73.30
48551;DHT22;34397;51.176;6.738;2024-02-23T08:02:32;5.80;73.70
48551;DHT22;34397;51.176;6.738;2024-02-23T08:05:04;5.70;74.00
48551;DHT22;34397;51.176;6.738;2024-02-23T08:07:37;5.80;74.40
48551;DHT22;34397;51.176;6.738;2024-02-23T08:10:09;5.80;74.40
48551;DHT22;34397;51.176;6.738;2024-02-23T08:12:44;5.80;73.50
48551;DHT22;34397;51.176;6.738;2024-02-23T08:15:17;5.80;73.60
48551;DHT22;34397;51.176;6.738;2024-02-23T08:17:49;5.80;74.10
48551;DHT22;34397;51.176;6.738;2024-02-23T08:20:20;5.90;74.00
48551;DHT22;34397;51.176;6.738;2024-02-23T08:22:53;5.90;73.30
48551;DHT22;34397;51.176;6.738;2024-02-23T08:25:24;5.90;73.60
48551;DHT22;34397;51.176;6.738;2024-02-23T08:28:00;6.00;74.00
48551;DHT22;34397;51.176;6.738;2024-02-23T08:30:32;6.00;73.90
48551;DHT22;34397;51.176;6.738;2024-02-23T08:33:04;6.00;74.00
48551;DHT22;34397;51.176;6.738;2024-02-23T08:35:39;6.10;73.60
48551;DHT22;34397;51.176;6.738;2024-02-23T08:38:11;6.20;73.40
48551;DHT22;34397;51.176;6.738;2024-02-23T08:40:43;6.20;72.80
48551;DHT22;34397;51.176;6.738;2024-02-23T08:43:17;6.30;73.60
48551;DHT22;34397;51.176;6.738;2024-02-23T08:45:50;6.30;72.50
48551;DHT22;34397;51.176;6.738;2024-02-23T08:48:22;6.30;70.80
48551;DHT22;34397;51.176;6.738;2024-02-23T08:50:54;6.20;70.50
48551;DHT22;34397;51.176;6.738;2024-02-23T08:53:26;6.30;72.10
48551;DHT22;34397;51.176;6.738;2024-02-23T08:55:57;6.40;73.90
48551;DHT22;34397;51.176;6.738;2024-02-23T08:58:32;6.50;74.10
48551;DHT22;34397;51.176;6.738;2024-02-23T09:01:04;6.60;73.40
48551;DHT22;34397;51.176;6.738;2024-02-23T09:03:36;6.70;73.40
48551;DHT22;34397;51.176;6.738;2024-02-23T09:06:08;6.70;72.00
48551;DHT22;34397;51.176;6.738;2024-02-23T09:08:40;6.80;70.80
48551;DHT22;34397;51.176;6.738;2024-02-23T09:11:12;6.80;70.80
48551;DHT22;34397;51.176;6.738;2024-02-23T09:13:47;6.80;70.10
48551;DHT22;34397;51.176;6.738;2024-02-23T09:16:18;6.90;70.40
48551;DHT22;34397;51.176;6.738;2024-02-23T09:18:52;6.90;70.90
48551;DHT22;34397;51.176;6.738;2024-02-23T09:21:24;6.90;70.40
48551;DHT22;34397;51.176;6.738;2024-02-23T09:23:56;7.00;70.30
48551;DHT22;34397;51.176;6.738;2024-02-23T09:26:28;7.00;70.50
48551;DHT22;34397;51.176;6.738;2024-02-23T09:29:01;7.10;70.20
48551;DHT22;34397;51.176;6.738;2024-02-23T09:31:33;7.10;70.50
48551;DHT22;34397;51.176;6.738;2024-02-23T09:34:05;7.10;70.20
48551;DHT22;34397;51.176;6.738;2024-02-23T09:36:36;7.20;70.90
48551;DHT22;34397;51.176;6.738;2024-02-23T09:39:08;7.30;70.30
48551;DHT22;34397;51.176;6.738;2024-02-23T09:41:41;7.30;69.20
48551;DHT22;34397;51.176;6.738;2024-02-23T09:44:16;7.30;68.30
48551;DHT22;34397;51.176;6.738;2024-02-23T09:46:51;7.30;67.50
48551;DHT22;34397;51.176;6.738;2024-02-23T09:49:22;7.30;68.20
48551;DHT22;34397;51.176;6.738;2024-02-23T09:51:55;7.30;67.50
48551;DHT22;34397;51.176;6.738;2024-02-23T09:54:27;7.30;67.50
48551;DHT22;34397;51.176;6.738;2024-02-23T09:56:59;7.30;68.00
48551;DHT22;34397;51.176;6.738;2024-02-23T09:59:35;7.20;67.90
48551;DHT22;34397;51.176;6.738;2024-02-23T10:02:08;7.30;68.00
48551;DHT22;34397;51.176;6.738;2024-02-23T10:04:42;7.30;68.00
48551;DHT22;34397;51.176;6.738;2024-02-23T10:07:15;7.40;68.40
48551;DHT22;34397;51.176;6.738;2024-02-23T10:09:47;7.40;68.20
48551;DHT22;34397;51.176;6.738;2024-02-23T10:12:19;7.40;68.20
48551;DHT22;34397;51.176;6.738;2024-02-23T10:14:52;7.50;67.00
48551;DHT22;34397;51.176;6.738;2024-02-23T10:17:24;7.50;67.40
48551;DHT22;34397;51.176;6.738;2024-02-23T10:19:55;7.60;68.20
48551;DHT22;34397;51.176;6.738;2024-02-23T10:22:30;7.60;67.70
48551;DHT22;34397;51.176;6.738;2024-02-23T10:25:02;7.70;67.20
48551;DHT22;34397;51.176;6.738;2024-02-23T10:27:34;7.80;68.00
48551;DHT22;34397;51.176;6.738;2024-02-23T10:30:08;7.80;65.40
48551;DHT22;34397;51.176;6.738;2024-02-23T10:32:42;7.90;65.70
48551;DHT22;34397;51.176;6.738;2024-02-23T10:35:14;7.90;64.90
48551;DHT22;34397;51.176;6.738;2024-02-23T10:37:49;7.80;63.80
48551;DHT22;34397;51.176;6.738;2024-02-23T10:40:22;7.80;65.20
48551;DHT22;34397;51.176;6.738;2024-02-23T10:42:56;7.80;63.80
48551;DHT22;34397;51.176;6.738;2024-02-23T10:45:29;7.80;64.60
48551;DHT22;34397;51.176;6.738;2024-02-23T10:48:02;7.80;65.00
48551;DHT22;34397;51.176;6.738;2024-02-23T10:50:35;7.80;65.50
48551;DHT22;34397;51.176;6.738;2024-02-23T10:53:07;7.80;65.20
48551;DHT22;34397;51.176;6.738;2024-02-23T10:55:40;7.80;65.70
48551;DHT22;34397;51.176;6.738;2024-02-23T10:58:14;7.80;65.70
48551;DHT22;34397;51.176;6.738;2024-02-23T11:00:48;7.80;65.90
48551;DHT22;34397;51.176;6.738;2024-02-23T11:03:20;7.70;65.20
48551;DHT22;34397;51.176;6.738;2024-02-23T11:05:53;7.70;64.80
48551;DHT22;34397;51.176;6.738;2024-02-23T11:08:28;7.70;65.50
48551;DHT22;34397;51.176;6.738;2024-02-23T11:11:07;7.80;65.40
48551;DHT22;34397;51.176;6.738;2024-02-23T11:13:40;7.80;65.50
48551;DHT22;34397;51.176;6.738;2024-02-23T11:16:22;7.80;65.00
48551;DHT22;34397;51.176;6.738;2024-02-23T11:19:04;7.80;64.90
48551;DHT22;34397;51.176;6.738;2024-02-23T11:21:36;7.80;64.60
48551;DHT22;34397;51.176;6.738;2024-02-23T11:24:15;7.80;66.10
48551;DHT22;34397;51.176;6.738;2024-02-23T11:26:48;7.90;65.40
48551;DHT22;34397;51.176;6.738;2024-02-23T11:29:20;8.00;66.30
48551;DHT22;34397;51.176;6.738;2024-02-23T11:31:53;8.00;64.70
48551;DHT22;34397;51.176;6.738;2024-02-23T11:34:30;8.00;64.60
48551;DHT22;34397;51.176;6.738;2024-02-23T11:37:09;8.00;65.00
48551;DHT22;34397;51.176;6.738;2024-02-23T11:39:42;8.10;65.00
48551;DHT22;34397;51.176;6.738;2024-02-23T11:42:14;8.20;65.20
48551;DHT22;34397;51.176;6.738;2024-02-23T11:44:46;8.20;64.70
48551;DHT22;34397;51.176;6.738;2024-02-23T11:47:19;8.20;64.40
48551;DHT22;34397;51.176;6.738;2024-02-23T11:49:51;8.30;64.40
48551;DHT22;34397;51.176;6.738;2024-02-23T11:52:23;8.20;63.20
48551;DHT22;34397;51.176;6.738;2024-02-23T11:54:56;8.30;65.20
48551;DHT22;34397;51.176;6.738;2024-02-23T11:57:28;8.30;64.90
48551;DHT22;34397;51.176;6.738;2024-02-23T12:00:01;8.30;65.10
48551;DHT22;34397;51.176;6.738;2024-02-23T12:02:35;8.30;65.90
48551;DHT22;34397;51.176;6.738;2024-02-23T12:05:08;8.40;65.70
48551;DHT22;34397;51.176;6.738;2024-02-23T12:07:40;8.40;65.30
48551;DHT22;34397;51.176;6.738;2024-02-23T12:10:12;8.40;64.80
48551;DHT22;34397;51.176;6.738;2024-02-23T12:12:44;8.50;64.50
48551;DHT22;34397;51.176;6.738;2024-02-23T12:15:16;8.50;63.70
48551;DHT22;34397;51.176;6.738;2024-02-23T12:17:49;8.40;64.60
48551;DHT22;34397;51.176;6.738;2024-02-23T12:20:21;8.50;63.70
48551;DHT22;34397;51.176;6.738;2024-02-23T12:22:54;8.40;63.80
48551;DHT22;34397;51.176;6.738;2024-02-23T12:25:27;8.40;61.90
48551;DHT22;34397;51.176;6.738;2024-02-23T12:27:59;8.30;62.90
48551;DHT22;34397;51.176;6.738;2024-02-23T12:30:31;8.30;63.80
48551;DHT22;34397;51.176;6.738;2024-02-23T12:33:06;8.30;62.70
48551;DHT22;34397;51.176;6.738;2024-02-23T12:35:39;8.30;63.20
48551;DHT22;34397;51.176;6.738;2024-02-23T12:38:11;8.30;64.60
48551;DHT22;34397;51.176;6.738;2024-02-23T12:40:43;8.30;63.80
48551;DHT22;34397;51.176;6.738;2024-02-23T12:43:15;8.40;63.80
48551;DHT22;34397;51.176;6.738;2024-02-23T12:45:47;8.40;63.10
48551;DHT22;34397;51.176;6.738;2024-02-23T12:48:22;8.20;63.50
48551;DHT22;34397;51.176;6.738;2024-02-23T12:50:54;8.30;65.10
48551;DHT22;34397;51.176;6.738;2024-02-23T12:53:33;8.40;66.50
48551;DHT22;34397;51.176;6.738;2024-02-23T12:56:07;8.40;66.10
48551;DHT22;34397;51.176;6.738;2024-02-23T12:58:41;8.60;65.80
48551;DHT22;34397;51.176;6.738;2024-02-23T13:01:14;8.70;65.50
48551;DHT22;34397;51.176;6.738;2024-02-23T13:03:48;9.00;65.70
48551;DHT22;34397;51.176;6.738;2024-02-23T13:06:19;9.30;66.50
48551;DHT22;34397;51.176;6.738;2024-02-23T13:08:52;9.70;66.20
48551;DHT22;34397;51.176;6.738;2024-02-23T13:11:24;10.20;62.20
48551;DHT22;34397;51.176;6.738;2024-02-23T13:13:55;10.50;59.40
48551;DHT22;34397;51.176;6.738;2024-02-23T13:16:27;10.80;58.50
48551;DHT22;34397;51.176;6.738;2024-02-23T13:19:01;11.00;57.80
48551;DHT22;34397;51.176;6.738;2024-02-23T13:21:33;11.10;58.30
48551;DHT22;34397;51.176;6.738;2024-02-23T13:24:05;11.30;58.50
48551;DHT22;34397;51.176;6.738;2024-02-23T13:26:37;11.30;56.90
48551;DHT22;34397;51.176;6.738;2024-02-23T13:29:08;11.20;57.00
48551;DHT22;34397;51.176;6.738;2024-02-23T13:31:40;11.10;57.90
48551;DHT22;34397;51.176;6.738;2024-02-23T13:34:13;11.00;57.00
48551;DHT22;34397;51.176;6.738;2024-02-23T13:36:47;10.80;57.10
48551;DHT22;34397;51.176;6.738;2024-02-23T13:39:20;10.70;58.40
48551;DHT22;34397;51.176;6.738;2024-02-23T13:41:52;10.50;60.10
48551;DHT22;34397;51.176;6.738;2024-02-23T13:44:24;10.40;60.90
48551;DHT22;34397;51.176;6.738;2024-02-23T13:46:56;10.40;59.80
48551;DHT22;34397;51.176;6.738;2024-02-23T13:49:29;10.30;59.90
48551;DHT22;34397;51.176;6.738;2024-02-23T13:52:01;10.20;59.90
48551;DHT22;34397;51.176;6.738;2024-02-23T13:54:32;10.20;60.00
48551;DHT22;34397;51.176;6.738;2024-02-23T13:57:05;10.20;59.60
48551;DHT22;34397;51.176;6.738;2024-02-23T13:59:36;10.20;59.50
48551;DHT22;34397;51.176;6.738;2024-02-23T14:02:08;10.10;59.30
48551;DHT22;34397;51.176;6.738;2024-02-23T14:04:42;10.10;58.70
48551;DHT22;34397;51.176;6.738;2024-02-23T14:07:15;10.10;58.00
48551;DHT22;34397;51.176;6.738;2024-02-23T14:09:48;10.00;59.10
48551;DHT22;34397;51.176;6.738;2024-02-23T14:12:20;10.00;59.40
48551;DHT22;34397;51.176;6.738;2024-02-23T14:14:52;10.00;57.80
48551;DHT22;34397;51.176;6.738;2024-02-23T14:17:24;9.90;58.00
48551;DHT22;34397;51.176;6.738;2024-02-23T14:19:57;9.80;58.20
48551;DHT22;34397;51.176;6.738;2024-02-23T14:22:29;9.80;59.00
48551;DHT22;34397;51.176;6.738;2024-02-23T14:25:01;9.80;59.80
48551;DHT22;34397;51.176;6.738;2024-02-23T14:27:33;9.80;60.00
48551;DHT22;34397;51.176;6.738;2024-02-23T14:30:07;9.80;60.90
48551;DHT22;34397;51.176;6.738;2024-02-23T14:32:39;9.80;60.70
48551;DHT22;34397;51.176;6.738;2024-02-23T14:35:14;9.80;60.70
48551;DHT22;34397;51.176;6.738;2024-02-23T14:37:45;9.90;61.80
48551;DHT22;34397;51.176;6.738;2024-02-23T14:40:17;9.90;60.90
48551;DHT22;34397;51.176;6.738;2024-02-23T14:42:49;10.00;60.50
48551;DHT22;34397;51.176;6.738;2024-02-23T14:45:21;10.00;61.00
48551;DHT22;34397;51.176;6.738;2024-02-23T14:47:53;10.10;61.00
48551;DHT22;34397;51.176;6.738;2024-02-23T14:50:27;10.10;59.30
48551;DHT22;34397;51.176;6.738;2024-02-23T14:52:59;10.10;58.80
48551;DHT22;34397;51.176;6.738;2024-02-23T14:55:30;10.00;58.50
48551;DHT22;34397;51.176;6.738;2024-02-23T14:58:02;9.90;59.10
48551;DHT22;34397;51.176;6.738;2024-02-23T15:00:34;9.80;59.10
48551;DHT22;34397;51.176;6.738;2024-02-23T15:03:07;9.80;59.50
48551;DHT22;34397;51.176;6.738;2024-02-23T15:05:41;9.70;59.10
48551;DHT22;34397;51.176;6.738;2024-02-23T15:08:13;9.70;59.90
48551;DHT22;34397;51.176;6.738;2024-02-23T15:10:44;9.70;59.10
48551;DHT22;34397;51.176;6.738;2024-02-23T15:13:16;9.60;59.60
48551;DHT22;34397;51.176;6.738;2024-02-23T15:15:48;9.60;60.10
48551;DHT22;34397;51.176;6.738;2024-02-23T15:18:21;9.60;60.50
48551;DHT22;34397;51.176;6.738;2024-02-23T15:20:54;9.50;60.90
48551;DHT22;34397;51.176;6.738;2024-02-23T15:23:26;9.60;61.50
48551;DHT22;34397;51.176;6.738;2024-02-23T15:25:58;9.60;62.10
48551;DHT22;34397;51.176;6.738;2024-02-23T15:28:30;9.60;62.00
48551;DHT22;34397;51.176;6.738;2024-02-23T15:31:02;9.60;61.80
48551;DHT22;34397;51.176;6.738;2024-02-23T15:33:34;9.60;62.00
48551;DHT22;34397;51.176;6.738;2024-02-23T15:36:10;9.60;62.00
48551;DHT22;34397;51.176;6.738;2024-02-23T15:38:42;9.60;62.20
48551;DHT22;34397;51.176;6.738;2024-02-23T15:41:14;9.60;62.30
48551;DHT22;34397;51.176;6.738;2024-02-23T15:43:46;9.60;62.70
48551;DHT22;34397;51.176;6.738;2024-02-23T15:46:17;9.60;63.00
48551;DHT22;34397;51.176;6.738;2024-02-23T15:48:49;9.60;63.30
48551;DHT22;34397;51.176;6.738;2024-02-23T15:51:23;9.60;63.20
48551;DHT22;34397;51.176;6.738;2024-02-23T15:53:54;9.50;63.00
48551;DHT22;34397;51.176;6.738;2024-02-23T15:56:27;9.50;63.00
48551;DHT22;34397;51.176;6.738;2024-02-23T15:58:59;9.50;63.20
48551;DHT22;34397;51.176;6.738;2024-02-23T16:01:31;9.40;63.00
48551;DHT22;34397;51.176;6.738;2024-02-23T16:04:03;9.30;65.30
48551;DHT22;34397;51.176;6.738;2024-02-23T16:06:38;9.20;70.40
48551;DHT22;34397;51.176;6.738;2024-02-23T16:09:09;8.90;71.20
48551;DHT22;34397;51.176;6.738;2024-02-23T16:11:46;8.70;72.20
48551;DHT22;34397;51.176;6.738;2024-02-23T16:14:18;8.40;73.60
48551;DHT22;34397;51.176;6.738;2024-02-23T16:16:50;8.30;75.80
48551;DHT22;34397;51.176;6.738;2024-02-23T16:19:23;8.10;75.40